sensor_id;sensor_type;location;lat;lon;timestamp;pressure;altitude;pressure_sealevel;temperature;humidity
32873;BME280;19224;52.462;16.898;2022-11-11T00:02:14;101485.40;;;11.66;100.00
32873;BME280;19224;52.462;16.898;2022-11-11T00:04:57;101487.20;;;11.67;100.00
32873;BME280;19224;52.462;16.898;2022-11-11T00:07:27;101483.22;;;11.64;100.00
32873;BME280;19224;52.462;16.898;2022-11-11T00:09:59;101484.57;;;11.64;100.00
32873;BME280;19224;52.462;16.898;2022-11-11T00:12:29;101496.68;;;11.65;100.00
32873;BME280;19224;52.462;16.898;2022-11-11T00:15:00;101486.95;;;11.60;100.00
32873;BME280;19224;52.462;16.898;2022-11-11T00:17:32;101484.64;;;11.62;100.00
32873;BME280;19224;52.462;16.898;2022-11-11T00:23:33;101491.42;;;11.61;100.00
32873;BME280;19224;52.462;16.898;2022-11-11T00:26:27;101486.98;;;11.58;100.00
32873;BME280;19224;52.462;16.898;2022-11-11T00:28:57;101492.03;;;11.54;100.00
32873;BME280;19224;52.462;16.898;2022-11-11T00:31:27;101494.70;;;11.56;100.00
32873;BME280;19224;52.462;16.898;2022-11-11T00:33:59;101499.74;;;11.52;100.00
32873;BME280;19224;52.462;16.898;2022-11-11T00:36:33;101500.67;;;11.51;100.00
32873;BME280;19224;52.462;16.898;2022-11-11T00:39:09;101511.05;;;11.50;100.00
32873;BME280;19224;52.462;16.898;2022-11-11T00:41:35;101512.85;;;11.49;100.00
32873;BME280;19224;52.462;16.898;2022-11-11T00:44:17;101507.45;;;11.49;100.00
32873;BME280;19224;52.462;16.898;2022-11-11T00:46:51;101507.00;;;11.50;100.00
32873;BME280;19224;52.462;16.898;2022-11-11T00:49:39;101502.13;;;11.48;100.00
32873;BME280;19224;52.462;16.898;2022-11-11T00:52:27;101496.31;;;11.47;100.00
32873;BME280;19224;52.462;16.898;2022-11-11T00:54:57;101499.59;;;11.42;100.00
32873;BME280;19224;52.462;16.898;2022-11-11T00:57:28;101490.77;;;11.37;100.00
32873;BME280;19224;52.462;16.898;2022-11-11T00:59:58;101484.14;;;11.32;100.00
32873;BME280;19224;52.462;16.898;2022-11-11T01:02:34;101486.56;;;11.27;100.00
32873;BME280;19224;52.462;16.898;2022-11-11T01:05:04;101489.83;;;11.22;100.00
32873;BME280;19224;52.462;16.898;2022-11-11T01:07:38;101484.95;;;11.20;100.00
32873;BME280;19224;52.462;16.898;2022-11-11T01:10:07;101489.41;;;11.21;100.00
32873;BME280;19224;52.462;16.898;2022-11-11T01:12:37;101488.58;;;11.19;100.00
32873;BME280;19224;52.462;16.898;2022-11-11T01:15:09;101482.80;;;11.16;100.00
32873;BME280;19224;52.462;16.898;2022-11-11T01:17:41;101483.70;;;11.17;100.00
32873;BME280;19224;52.462;16.898;2022-11-11T01:20:11;101494.48;;;11.17;100.00
32873;BME280;19224;52.462;16.898;2022-11-11T01:22:42;101503.92;;;11.17;100.00
32873;BME280;19224;52.462;16.898;2022-11-11T01:25:15;101497.15;;;11.18;100.00
32873;BME280;19224;52.462;16.898;2022-11-11T01:27:53;101489.60;;;11.15;100.00
32873;BME280;19224;52.462;16.898;2022-11-11T01:30:26;101495.56;;;11.10;100.00
32873;BME280;19224;52.462;16.898;2022-11-11T01:33:01;101500.52;;;11.10;100.00
32873;BME280;19224;52.462;16.898;2022-11-11T01:35:36;101506.35;;;11.10;100.00
32873;BME280;19224;52.462;16.898;2022-11-11T01:38:04;101520.61;;;11.15;100.00
32873;BME280;19224;52.462;16.898;2022-11-11T01:40:45;101514.80;;;11.14;100.00
32873;BME280;19224;52.462;16.898;2022-11-11T01:43:20;101511.69;;;11.13;100.00
32873;BME280;19224;52.462;16.898;2022-11-11T01:46:02;101507.16;;;11.13;100.00
32873;BME280;19224;52.462;16.898;2022-11-11T01:48:45;101506.71;;;11.14;100.00
32873;BME280;19224;52.462;16.898;2022-11-11T02:00:18;101480.45;;;11.20;100.00
32873;BME280;19224;52.462;16.898;2022-11-11T02:03:03;101468.25;;;11.22;100.00
32873;BME280;19224;52.462;16.898;2022-11-11T02:05:34;101461.03;;;11.24;100.00
32873;BME280;19224;52.462;16.898;2022-11-11T02:08:23;101452.88;;;11.25;100.00
32873;BME280;19224;52.462;16.898;2022-11-11T02:10:52;101457.82;;;11.26;100.00
32873;BME280;19224;52.462;16.898;2022-11-11T02:13:26;101460.52;;;11.26;100.00
32873;BME280;19224;52.462;16.898;2022-11-11T02:16:18;101454.64;;;11.26;100.00
32873;BME280;19224;52.462;16.898;2022-11-11T02:18:49;101453.36;;;11.25;100.00
32873;BME280;19224;52.462;16.898;2022-11-11T02:21:41;101449.73;;;11.26;100.00
32873;BME280;19224;52.462;16.898;2022-11-11T02:24:15;101449.31;;;11.25;100.00
32873;BME280;19224;52.462;16.898;2022-11-11T02:26:47;101449.45;;;11.20;100.00
32873;BME280;19224;52.462;16.898;2022-11-11T02:29:20;101454.45;;;11.18;100.00
32873;BME280;19224;52.462;16.898;2022-11-11T02:31:52;101451.85;;;11.15;100.00
32873;BME280;19224;52.462;16.898;2022-11-11T02:34:34;101447.04;;;11.10;100.00
32873;BME280;19224;52.462;16.898;2022-11-11T02:37:07;101462.89;;;11.06;100.00
32873;BME280;19224;52.462;16.898;2022-11-11T02:39:43;101469.22;;;11.05;100.00
32873;BME280;19224;52.462;16.898;2022-11-11T02:42:25;101480.93;;;11.04;100.00
32873;BME280;19224;52.462;16.898;2022-11-11T02:44:51;101490.04;;;11.00;100.00
32873;BME280;19224;52.462;16.898;2022-11-11T02:47:23;101499.02;;;10.99;100.00
32873;BME280;19224;52.462;16.898;2022-11-11T02:49:57;101496.39;;;10.97;100.00
32873;BME280;19224;52.462;16.898;2022-11-11T02:52:27;101496.00;;;10.95;100.00
32873;BME280;19224;52.462;16.898;2022-11-11T02:55:02;101510.41;;;10.94;100.00
32873;BME280;19224;52.462;16.898;2022-11-11T02:57:33;101514.87;;;10.95;100.00
32873;BME280;19224;52.462;16.898;2022-11-11T03:00:06;101511.34;;;10.93;100.00
32873;BME280;19224;52.462;16.898;2022-11-11T03:02:55;101511.42;;;10.90;100.00
32873;BME280;19224;52.462;16.898;2022-11-11T03:05:26;101502.98;;;10.86;100.00
32873;BME280;19224;52.462;16.898;2022-11-11T03:08:04;101505.25;;;10.85;100.00
32873;BME280;19224;52.462;16.898;2022-11-11T03:10:38;101507.63;;;10.81;100.00
32873;BME280;19224;52.462;16.898;2022-11-11T03:13:08;101510.41;;;10.78;100.00
32873;BME280;19224;52.462;16.898;2022-11-11T03:15:39;101503.91;;;10.69;100.00
32873;BME280;19224;52.462;16.898;2022-11-11T03:18:11;101502.92;;;10.71;100.00
32873;BME280;19224;52.462;16.898;2022-11-11T03:20:41;101506.59;;;10.69;100.00
32873;BME280;19224;52.462;16.898;2022-11-11T03:23:31;101512.11;;;10.64;100.00
32873;BME280;19224;52.462;16.898;2022-11-11T03:26:02;101510.39;;;10.60;100.00
32873;BME280;19224;52.462;16.898;2022-11-11T03:28:41;101510.03;;;10.58;100.00
32873;BME280;19224;52.462;16.898;2022-11-11T03:31:16;101517.21;;;10.57;100.00
32873;BME280;19224;52.462;16.898;2022-11-11T03:33:49;101516.40;;;10.54;100.00
32873;BME280;19224;52.462;16.898;2022-11-11T03:36:21;101520.95;;;10.52;100.00
32873;BME280;19224;52.462;16.898;2022-11-11T03:39:00;101529.02;;;10.52;100.00
32873;BME280;19224;52.462;16.898;2022-11-11T03:41:31;101528.19;;;10.50;100.00
32873;BME280;19224;52.462;16.898;2022-11-11T03:44:04;101534.58;;;10.46;100.00
32873;BME280;19224;52.462;16.898;2022-11-11T03:46:34;101526.64;;;10.40;100.00
32873;BME280;19224;52.462;16.898;2022-11-11T03:49:05;101522.20;;;10.37;100.00
32873;BME280;19224;52.462;16.898;2022-11-11T03:51:39;101522.37;;;10.31;100.00
32873;BME280;19224;52.462;16.898;2022-11-11T03:54:15;101520.70;;;10.26;100.00
32873;BME280;19224;52.462;16.898;2022-11-11T03:56:48;101523.48;;;10.23;100.00
32873;BME280;19224;52.462;16.898;2022-11-11T03:59:18;101527.15;;;10.19;100.00
32873;BME280;19224;52.462;16.898;2022-11-11T04:01:50;101524.12;;;10.15;100.00
32873;BME280;19224;52.462;16.898;2022-11-11T04:04:41;101517.91;;;10.11;100.00
32873;BME280;19224;52.462;16.898;2022-11-11T04:07:29;101526.02;;;10.10;100.00
32873;BME280;19224;52.462;16.898;2022-11-11T04:10:19;101521.66;;;10.04;100.00
32873;BME280;19224;52.462;16.898;2022-11-11T04:13:00;101518.59;;;10.02;100.00
32873;BME280;19224;52.462;16.898;2022-11-11T04:15:50;101517.23;;;10.00;100.00
32873;BME280;19224;52.462;16.898;2022-11-11T04:18:37;101508.00;;;9.93;100.00
32873;BME280;19224;52.462;16.898;2022-11-11T04:21:26;101500.44;;;9.91;100.00
32873;BME280;19224;52.462;16.898;2022-11-11T04:24:17;101495.07;;;9.89;100.00
32873;BME280;19224;52.462;16.898;2022-11-11T04:27:11;101453.86;;;9.68;100.00
32873;BME280;19224;52.462;16.898;2022-11-11T04:29:43;101488.65;;;9.76;100.00
32873;BME280;19224;52.462;16.898;2022-11-11T04:32:20;101499.97;;;9.72;100.00
32873;BME280;19224;52.462;16.898;2022-11-11T04:35:12;101504.52;;;9.69;100.00
32873;BME280;19224;52.462;16.898;2022-11-11T04:37:46;101495.15;;;9.66;100.00
32873;BME280;19224;52.462;16.898;2022-11-11T04:40:19;101495.28;;;9.61;100.00
32873;BME280;19224;52.462;16.898;2022-11-11T04:43:07;101510.52;;;9.61;100.00
32873;BME280;19224;52.462;16.898;2022-11-11T04:45:37;101513.78;;;9.56;100.00
32873;BME280;19224;52.462;16.898;2022-11-11T04:48:10;101516.98;;;9.52;100.00
32873;BME280;19224;52.462;16.898;2022-11-11T04:50:43;101513.55;;;9.46;100.00
32873;BME280;19224;52.462;16.898;2022-11-11T04:53:15;101518.09;;;9.43;100.00
32873;BME280;19224;52.462;16.898;2022-11-11T04:55:46;101523.06;;;9.40;100.00
32873;BME280;19224;52.462;16.898;2022-11-11T04:58:35;101525.33;;;9.39;100.00
32873;BME280;19224;52.462;16.898;2022-11-11T05:01:05;101524.43;;;9.38;100.00
32873;BME280;19224;52.462;16.898;2022-11-11T05:03:35;101520.88;;;9.38;100.00
32873;BME280;19224;52.462;16.898;2022-11-11T05:06:06;101518.61;;;9.39;100.00
32873;BME280;19224;52.462;16.898;2022-11-11T05:08:54;101525.83;;;9.37;100.00
32873;BME280;19224;52.462;16.898;2022-11-11T05:11:31;101525.91;;;9.33;100.00
32873;BME280;19224;52.462;16.898;2022-11-11T05:14:05;101519.17;;;9.34;100.00
32873;BME280;19224;52.462;16.898;2022-11-11T05:16:57;101524.59;;;9.31;100.00
32873;BME280;19224;52.462;16.898;2022-11-11T05:19:50;101526.08;;;9.25;100.00
32873;BME280;19224;52.462;16.898;2022-11-11T05:22:44;101526.08;;;9.25;100.00
32873;BME280;19224;52.462;16.898;2022-11-11T05:25:22;101523.00;;;9.21;100.00
32873;BME280;19224;52.462;16.898;2022-11-11T05:27:58;101519.94;;;9.19;100.00
32873;BME280;19224;52.462;16.898;2022-11-11T05:30:33;101532.97;;;9.16;100.00
32873;BME280;19224;52.462;16.898;2022-11-11T05:33:03;101539.70;;;9.15;100.00
32873;BME280;19224;52.462;16.898;2022-11-11T05:35:33;101537.06;;;9.13;100.00
32873;BME280;19224;52.462;16.898;2022-11-11T05:38:04;101536.22;;;9.11;100.00
32873;BME280;19224;52.462;16.898;2022-11-11T05:40:51;101546.55;;;9.09;100.00
32873;BME280;19224;52.462;16.898;2022-11-11T05:43:26;101544.31;;;9.08;100.00
32873;BME280;19224;52.462;16.898;2022-11-11T05:46:03;101531.35;;;9.08;100.00
32873;BME280;19224;52.462;16.898;2022-11-11T05:48:31;101544.39;;;9.04;100.00
32873;BME280;19224;52.462;16.898;2022-11-11T05:51:02;101555.14;;;9.04;100.00
32873;BME280;19224;52.462;16.898;2022-11-11T05:53:38;101555.64;;;9.02;100.00
32873;BME280;19224;52.462;16.898;2022-11-11T05:56:10;101548.08;;;8.98;100.00
32873;BME280;19224;52.462;16.898;2022-11-11T05:58:42;101544.19;;;8.92;100.00
32873;BME280;19224;52.462;16.898;2022-11-11T06:01:13;101537.95;;;8.90;100.00
32873;BME280;19224;52.462;16.898;2022-11-11T06:03:43;101545.63;;;8.86;100.00
32873;BME280;19224;52.462;16.898;2022-11-11T06:06:17;101540.33;;;8.82;100.00
32873;BME280;19224;52.462;16.898;2022-11-11T06:08:48;101536.38;;;8.77;100.00
32873;BME280;19224;52.462;16.898;2022-11-11T06:11:21;101536.44;;;8.74;100.00
32873;BME280;19224;52.462;16.898;2022-11-11T06:13:52;101538.70;;;8.73;100.00
32873;BME280;19224;52.462;16.898;2022-11-11T06:16:29;101536.98;;;8.69;100.00
32873;BME280;19224;52.462;16.898;2022-11-11T06:18:59;101556.70;;;8.68;100.00
32873;BME280;19224;52.462;16.898;2022-11-11T06:21:34;101545.55;;;8.66;100.00
32873;BME280;19224;52.462;16.898;2022-11-11T06:24:09;101535.73;;;8.63;100.00
32873;BME280;19224;52.462;16.898;2022-11-11T06:26:45;101537.51;;;8.64;100.00
32873;BME280;19224;52.462;16.898;2022-11-11T06:29:19;101540.67;;;8.64;100.00
32873;BME280;19224;52.462;16.898;2022-11-11T06:31:50;101549.16;;;8.63;100.00
32873;BME280;19224;52.462;16.898;2022-11-11T06:34:24;101539.33;;;8.64;100.00
32873;BME280;19224;52.462;16.898;2022-11-11T06:36:54;101539.77;;;8.63;100.00
32873;BME280;19224;52.462;16.898;2022-11-11T06:39:25;101536.66;;;8.62;100.00
32873;BME280;19224;52.462;16.898;2022-11-11T06:41:55;101517.86;;;8.62;100.00
32873;BME280;19224;52.462;16.898;2022-11-11T06:44:31;101513.83;;;8.62;100.00
32873;BME280;19224;52.462;16.898;2022-11-11T06:46:57;101525.05;;;8.62;100.00
32873;BME280;19224;52.462;16.898;2022-11-11T06:49:28;101526.84;;;8.60;100.00
32873;BME280;19224;52.462;16.898;2022-11-11T06:51:58;101530.86;;;8.61;100.00
32873;BME280;19224;52.462;16.898;2022-11-11T06:54:28;101526.34;;;8.63;100.00
32873;BME280;19224;52.462;16.898;2022-11-11T06:57:07;101520.95;;;8.65;100.00
32873;BME280;19224;52.462;16.898;2022-11-11T06:59:37;101523.17;;;8.65;100.00
32873;BME280;19224;52.462;16.898;2022-11-11T07:02:15;101526.69;;;8.69;100.00
32873;BME280;19224;52.462;16.898;2022-11-11T07:04:52;101536.94;;;8.71;100.00
32873;BME280;19224;52.462;16.898;2022-11-11T07:07:23;101539.61;;;8.72;100.00
32873;BME280;19224;52.462;16.898;2022-11-11T07:09:53;101541.32;;;8.76;100.00
32873;BME280;19224;52.462;16.898;2022-11-11T07:12:25;101542.66;;;8.76;100.00
32873;BME280;19224;52.462;16.898;2022-11-11T07:14:58;101547.94;;;8.82;100.00
32873;BME280;19224;52.462;16.898;2022-11-11T07:17:35;101539.75;;;8.88;100.00
32873;BME280;19224;52.462;16.898;2022-11-11T07:20:08;101537.95;;;8.90;100.00
32873;BME280;19224;52.462;16.898;2022-11-11T07:22:40;101540.09;;;8.95;100.00
32873;BME280;19224;52.462;16.898;2022-11-11T07:25:13;101542.41;;;8.91;100.00
32873;BME280;19224;52.462;16.898;2022-11-11T07:27:54;101544.10;;;8.97;100.00
32873;BME280;19224;52.462;16.898;2022-11-11T07:30:32;101547.98;;;9.04;100.00
32873;BME280;19224;52.462;16.898;2022-11-11T07:33:04;101550.18;;;9.06;100.00
32873;BME280;19224;52.462;16.898;2022-11-11T07:35:35;101553.69;;;9.11;100.00
32873;BME280;19224;52.462;16.898;2022-11-11T07:38:10;101554.14;;;9.09;100.00
32873;BME280;19224;52.462;16.898;2022-11-11T07:40:41;101556.73;;;9.15;100.00
32873;BME280;19224;52.462;16.898;2022-11-11T07:43:11;101553.13;;;9.16;100.00
32873;BME280;19224;52.462;16.898;2022-11-11T07:45:43;101556.17;;;9.20;100.00
32873;BME280;19224;52.462;16.898;2022-11-11T07:48:13;101552.11;;;9.23;100.00
32873;BME280;19224;52.462;16.898;2022-11-11T07:50:43;101561.88;;;9.27;100.00
32873;BME280;19224;52.462;16.898;2022-11-11T07:53:14;101551.05;;;9.30;100.00
32873;BME280;19224;52.462;16.898;2022-11-11T07:55:48;101553.14;;;9.38;100.00
32873;BME280;19224;52.462;16.898;2022-11-11T07:58:17;101553.92;;;9.43;100.00
32873;BME280;19224;52.462;16.898;2022-11-11T08:00:47;101554.30;;;9.47;100.00
32873;BME280;19224;52.462;16.898;2022-11-11T08:03:19;101564.09;;;9.49;100.00
32873;BME280;19224;52.462;16.898;2022-11-11T08:05:51;101558.58;;;9.57;100.00
32873;BME280;19224;52.462;16.898;2022-11-11T08:08:29;101558.94;;;9.61;100.00
32873;BME280;19224;52.462;16.898;2022-11-11T08:10:56;101560.59;;;9.68;100.00
32873;BME280;19224;52.462;16.898;2022-11-11T08:13:26;101563.70;;;9.69;100.00
32873;BME280;19224;52.462;16.898;2022-11-11T08:16:13;101557.83;;;9.71;100.00
32873;BME280;19224;52.462;16.898;2022-11-11T08:18:49;101569.78;;;9.77;100.00
32873;BME280;19224;52.462;16.898;2022-11-11T08:21:21;101559.00;;;9.78;100.00
32873;BME280;19224;52.462;16.898;2022-11-11T08:23:54;101571.00;;;9.84;100.00
32873;BME280;19224;52.462;16.898;2022-11-11T08:26:24;101564.69;;;9.85;100.00
32873;BME280;19224;52.462;16.898;2022-11-11T08:28:55;101589.23;;;9.91;100.00
32873;BME280;19224;52.462;16.898;2022-11-11T08:31:28;101596.73;;;9.96;100.00
32873;BME280;19224;52.462;16.898;2022-11-11T08:33:58;101588.66;;;9.96;100.00
32873;BME280;19224;52.462;16.898;2022-11-11T08:36:34;101586.73;;;10.04;100.00
32873;BME280;19224;52.462;16.898;2022-11-11T08:39:05;101592.11;;;10.04;100.00
32873;BME280;19224;52.462;16.898;2022-11-11T08:41:36;101590.39;;;10.00;100.00
32873;BME280;19224;52.462;16.898;2022-11-11T08:44:06;101595.11;;;10.11;100.00
32873;BME280;19224;52.462;16.898;2022-11-11T08:46:39;101592.74;;;10.16;100.00
32873;BME280;19224;52.462;16.898;2022-11-11T08:49:10;101601.77;;;10.14;100.00
32873;BME280;19224;52.462;16.898;2022-11-11T08:51:46;101610.27;;;10.15;100.00
32873;BME280;19224;52.462;16.898;2022-11-11T08:54:18;101603.02;;;10.18;100.00
32873;BME280;19224;52.462;16.898;2022-11-11T08:56:49;101604.10;;;10.29;100.00
32873;BME280;19224;52.462;16.898;2022-11-11T08:59:21;101602.97;;;10.39;100.00
32873;BME280;19224;52.462;16.898;2022-11-11T09:01:52;101618.71;;;10.38;100.00
32873;BME280;19224;52.462;16.898;2022-11-11T09:04:23;101618.23;;;10.38;100.00
32873;BME280;19224;52.462;16.898;2022-11-11T09:06:54;101611.80;;;10.45;100.00
32873;BME280;19224;52.462;16.898;2022-11-11T09:09:24;101620.88;;;10.41;100.00
32873;BME280;19224;52.462;16.898;2022-11-11T09:11:56;101601.50;;;10.45;100.00
32873;BME280;19224;52.462;16.898;2022-11-11T09:14:26;101605.86;;;10.50;100.00
32873;BME280;19224;52.462;16.898;2022-11-11T09:16:57;101604.32;;;10.58;100.00
32873;BME280;19224;52.462;16.898;2022-11-11T09:19:29;101617.28;;;10.60;100.00
32873;BME280;19224;52.462;16.898;2022-11-11T09:22:00;101620.48;;;10.58;100.00
32873;BME280;19224;52.462;16.898;2022-11-11T09:24:30;101627.56;;;10.62;100.00
32873;BME280;19224;52.462;16.898;2022-11-11T09:27:00;101641.33;;;10.69;100.00
32873;BME280;19224;52.462;16.898;2022-11-11T09:29:32;101633.60;;;10.71;100.00
32873;BME280;19224;52.462;16.898;2022-11-11T09:32:03;101634.38;;;10.78;100.00
32873;BME280;19224;52.462;16.898;2022-11-11T09:34:36;101630.80;;;10.76;100.00
32873;BME280;19224;52.462;16.898;2022-11-11T09:37:12;101628.73;;;10.87;100.00
32873;BME280;19224;52.462;16.898;2022-11-11T09:42:55;101640.81;;;10.90;100.00
32873;BME280;19224;52.462;16.898;2022-11-11T09:50:42;101625.58;;;11.05;100.00
32873;BME280;19224;52.462;16.898;2022-11-11T09:53:29;101630.78;;;11.12;100.00
32873;BME280;19224;52.462;16.898;2022-11-11T09:56:10;101625.59;;;11.21;100.00
32873;BME280;19224;52.462;16.898;2022-11-11T10:01:55;101627.61;;;11.30;100.00
32873;BME280;19224;52.462;16.898;2022-11-11T10:07:23;101628.03;;;11.47;100.00
32873;BME280;19224;52.462;16.898;2022-11-11T10:09:59;101613.58;;;11.50;100.00
32873;BME280;19224;52.462;16.898;2022-11-11T10:12:34;101605.20;;;11.60;100.00
32873;BME280;19224;52.462;16.898;2022-11-11T10:15:10;101610.86;;;11.67;100.00
32873;BME280;19224;52.462;16.898;2022-11-11T10:17:54;101610.57;;;11.62;100.00
32873;BME280;19224;52.462;16.898;2022-11-11T10:20:33;101605.08;;;11.65;100.00
32873;BME280;19224;52.462;16.898;2022-11-11T10:23:15;101601.32;;;11.70;100.00
32873;BME280;19224;52.462;16.898;2022-11-11T10:25:55;101599.36;;;11.61;100.00
32873;BME280;19224;52.462;16.898;2022-11-11T10:28:30;101600.29;;;11.60;100.00
32873;BME280;19224;52.462;16.898;2022-11-11T10:31:08;101597.75;;;11.70;100.00
32873;BME280;19224;52.462;16.898;2022-11-11T10:36:31;101586.34;;;11.75;100.00
32873;BME280;19224;52.462;16.898;2022-11-11T10:39:04;101587.02;;;11.83;100.00
32873;BME280;19224;52.462;16.898;2022-11-11T10:41:43;101593.60;;;11.89;100.00
32873;BME280;19224;52.462;16.898;2022-11-11T10:44:28;101593.09;;;11.91;100.00
32873;BME280;19224;52.462;16.898;2022-11-11T10:49:56;101586.63;;;11.96;100.00
32873;BME280;19224;52.462;16.898;2022-11-11T10:52:23;101599.05;;;12.01;100.00
32873;BME280;19224;52.462;16.898;2022-11-11T10:55:02;101585.34;;;12.07;100.00
32873;BME280;19224;52.462;16.898;2022-11-11T10:57:38;101595.05;;;12.14;100.00
32873;BME280;19224;52.462;16.898;2022-11-11T11:00:12;101590.58;;;12.13;100.00
32873;BME280;19224;52.462;16.898;2022-11-11T11:02:54;101592.77;;;12.15;100.00
32873;BME280;19224;52.462;16.898;2022-11-11T11:05:35;101594.28;;;12.09;100.00
32873;BME280;19224;52.462;16.898;2022-11-11T11:08:20;101589.08;;;12.03;100.00
32873;BME280;19224;52.462;16.898;2022-11-11T11:10:51;101585.34;;;12.07;100.00
32873;BME280;19224;52.462;16.898;2022-11-11T11:13:49;101593.94;;;12.07;100.00
32873;BME280;19224;52.462;16.898;2022-11-11T11:16:30;101587.08;;;12.10;100.00
32873;BME280;19224;52.462;16.898;2022-11-11T11:19:20;101587.95;;;12.10;100.00
32873;BME280;19224;52.462;16.898;2022-11-11T11:22:00;101582.09;;;12.25;100.00
32873;BME280;19224;52.462;16.898;2022-11-11T11:24:34;101585.11;;;12.29;100.00
32873;BME280;19224;52.462;16.898;2022-11-11T11:27:08;101588.36;;;12.26;100.00
32873;BME280;19224;52.462;16.898;2022-11-11T11:29:42;101584.59;;;12.31;100.00
32873;BME280;19224;52.462;16.898;2022-11-11T11:32:27;101586.86;;;12.45;100.00
32873;BME280;19224;52.462;16.898;2022-11-11T11:34:58;101584.20;;;12.43;100.00
32873;BME280;19224;52.462;16.898;2022-11-11T11:37:29;101578.20;;;12.48;100.00
32873;BME280;19224;52.462;16.898;2022-11-11T11:42:51;101584.02;;;12.49;100.00
32873;BME280;19224;52.462;16.898;2022-11-11T11:45:28;101577.66;;;12.65;100.00
32873;BME280;19224;52.462;16.898;2022-11-11T11:51:20;101580.50;;;12.60;100.00
32873;BME280;19224;52.462;16.898;2022-11-11T11:56:47;101582.08;;;12.67;100.00
32873;BME280;19224;52.462;16.898;2022-11-11T12:02:47;101590.90;;;12.59;100.00
32873;BME280;19224;52.462;16.898;2022-11-11T12:05:48;101596.83;;;12.57;100.00
32873;BME280;19224;52.462;16.898;2022-11-11T12:08:57;101583.92;;;12.65;100.00
32873;BME280;19224;52.462;16.898;2022-11-11T12:11:56;101595.59;;;12.67;100.00
32873;BME280;19224;52.462;16.898;2022-11-11T12:17:27;101588.42;;;12.66;100.00
32873;BME280;19224;52.462;16.898;2022-11-11T12:20:17;101586.59;;;12.67;100.00
32873;BME280;19224;52.462;16.898;2022-11-11T12:23:25;101589.81;;;12.65;100.00
32873;BME280;19224;52.462;16.898;2022-11-11T12:25:36;101591.17;;;12.65;100.00
32873;BME280;19224;52.462;16.898;2022-11-11T12:31:12;101589.55;;;12.59;100.00
32873;BME280;19224;52.462;16.898;2022-11-11T13:13:26;101599.78;;;12.50;100.00
32873;BME280;19224;52.462;16.898;2022-11-11T13:15:51;101597.84;;;12.53;100.00
32873;BME280;19224;52.462;16.898;2022-11-11T13:18:55;101601.82;;;12.56;100.00
32873;BME280;19224;52.462;16.898;2022-11-11T13:21:33;101608.16;;;12.55;100.00
32873;BME280;19224;52.462;16.898;2022-11-11T13:23:58;101607.95;;;12.47;100.00
32873;BME280;19224;52.462;16.898;2022-11-11T13:26:39;101612.91;;;12.47;100.00
32873;BME280;19224;52.462;16.898;2022-11-11T13:32:19;101606.19;;;12.46;100.00
32873;BME280;19224;52.462;16.898;2022-11-11T13:34:51;101607.27;;;12.40;100.00
32873;BME280;19224;52.462;16.898;2022-11-11T13:37:30;101609.14;;;12.38;100.00
32873;BME280;19224;52.462;16.898;2022-11-11T13:40:19;101605.64;;;12.35;100.00
32873;BME280;19224;52.462;16.898;2022-11-11T13:42:45;101610.19;;;12.34;100.00
32873;BME280;19224;52.462;16.898;2022-11-11T13:45:29;101613.34;;;12.34;100.00
32873;BME280;19224;52.462;16.898;2022-11-11T13:48:00;101615.20;;;12.32;100.00
32873;BME280;19224;52.462;16.898;2022-11-11T13:50:36;101609.84;;;12.30;100.00
32873;BME280;19224;52.462;16.898;2022-11-11T13:53:32;101599.41;;;12.33;100.00
32873;BME280;19224;52.462;16.898;2022-11-11T13:56:03;101600.73;;;12.34;100.00
32873;BME280;19224;52.462;16.898;2022-11-11T13:58:36;101601.17;;;12.34;100.00
32873;BME280;19224;52.462;16.898;2022-11-11T14:01:09;101601.97;;;12.37;100.00
32873;BME280;19224;52.462;16.898;2022-11-11T14:09:11;101602.15;;;12.31;100.00
32873;BME280;19224;52.462;16.898;2022-11-11T14:11:43;101609.84;;;12.30;100.00
32873;BME280;19224;52.462;16.898;2022-11-11T14:17:15;101610.45;;;12.25;100.00
32873;BME280;19224;52.462;16.898;2022-11-11T14:19:47;101612.92;;;12.18;100.00
32873;BME280;19224;52.462;16.898;2022-11-11T14:22:34;101613.85;;;12.17;100.00
32873;BME280;19224;52.462;16.898;2022-11-11T14:25:25;101616.66;;;12.14;100.00
32873;BME280;19224;52.462;16.898;2022-11-11T14:27:57;101616.75;;;12.11;100.00
32873;BME280;19224;52.462;16.898;2022-11-11T14:30:37;101616.02;;;12.05;100.00
32873;BME280;19224;52.462;16.898;2022-11-11T14:36:44;101615.10;;;11.92;100.00
32873;BME280;19224;52.462;16.898;2022-11-11T14:39:37;101613.37;;;11.89;100.00
32873;BME280;19224;52.462;16.898;2022-11-11T14:48:55;101623.20;;;11.76;100.00
32873;BME280;19224;52.462;16.898;2022-11-11T14:50:42;101625.55;;;11.73;100.00
32873;BME280;19224;52.462;16.898;2022-11-11T14:53:24;101629.21;;;11.71;100.00
32873;BME280;19224;52.462;16.898;2022-11-11T14:55:56;101632.42;;;11.69;100.00
32873;BME280;19224;52.462;16.898;2022-11-11T14:58:36;101638.81;;;11.65;100.00
32873;BME280;19224;52.462;16.898;2022-11-11T15:01:17;101634.83;;;11.63;100.00
32873;BME280;19224;52.462;16.898;2022-11-11T15:03:51;101635.88;;;11.58;100.00
32873;BME280;19224;52.462;16.898;2022-11-11T15:06:31;101634.23;;;11.51;100.00
32873;BME280;19224;52.462;16.898;2022-11-11T15:14:37;101642.56;;;11.42;100.00